Time;durP1;ratioP1;P1;durP2;ratioP2;P2;SDS_P1;SDS_P2;PMS_P1;PMS_P2;Temp;Humidity;BMP_temperature;BMP_pressure;BME280_temperature;BME280_humidity;BME280_pressure;Samples;Min_cycle;Max_cycle;Signal;HPM_P1;HPM_P2
2021/01/12 00:01:43;;;;;;;2.42;0.57;;;15.20;61.30;;;;;;4994047;28;20117;-53
2021/01/12 00:04:09;;;;;;;3.22;0.80;;;15.20;61.30;;;;;;4994112;28;20093;-50
2021/01/12 00:06:35;;;;;;;2.90;0.90;;;15.20;61.30;;;;;;4993911;28;20029;-50
2021/01/12 00:09:00;;;;;;;3.28;0.80;;;15.20;61.30;;;;;;4994078;28;20026;-49
2021/01/12 00:11:26;;;;;;;2.60;0.82;;;15.20;61.30;;;;;;4993680;28;20034;-51
2021/01/12 00:13:52;;;;;;;2.00;0.70;;;15.20;61.30;;;;;;4993481;28;20046;-50
2021/01/12 00:16:21;;;;;;;1.52;0.50;;;15.10;61.10;;;;;;4993824;28;20085;-49
2021/01/12 00:18:47;;;;;;;1.95;0.60;;;15.10;61.10;;;;;;4993437;28;20061;-50
2021/01/12 00:21:14;;;;;;;2.22;0.90;;;15.10;61.20;;;;;;4994391;28;20051;-50
2021/01/12 00:23:39;;;;;;;2.50;0.80;;;15.10;61.10;;;;;;4993733;28;20512;-50
2021/01/12 00:26:06;;;;;;;1.38;0.80;;;15.10;61.10;;;;;;4993617;28;20062;-49
2021/01/12 00:28:35;;;;;;;2.83;0.70;;;15.10;61.00;;;;;;4993321;28;20491;-50
2021/01/12 00:31:03;;;;;;;1.85;0.60;;;15.10;61.10;;;;;;4992570;28;20022;-51
2021/01/12 00:33:29;;;;;;;2.38;0.75;;;15.10;61.10;;;;;;4993333;28;20027;-49
2021/01/12 00:35:54;;;;;;;1.73;0.63;;;15.10;61.10;;;;;;4975880;28;20578;-51
2021/01/12 00:38:20;;;;;;;1.85;0.95;;;15.10;61.10;;;;;;4993257;28;20487;-49
2021/01/12 00:40:46;;;;;;;3.50;0.75;;;15.00;61.00;;;;;;4993289;28;20040;-49
2021/01/12 00:43:11;;;;;;;1.60;0.98;;;15.00;61.00;;;;;;4993409;28;20097;-49
2021/01/12 00:45:37;;;;;;;1.38;0.68;;;15.00;61.00;;;;;;4993384;28;20378;-50
2021/01/12 00:48:02;;;;;;;1.73;0.63;;;15.00;61.00;;;;;;4993338;28;20458;-50
2021/01/12 00:50:28;;;;;;;2.85;0.80;;;15.00;61.00;;;;;;4993050;28;20036;-50
2021/01/12 00:52:53;;;;;;;1.83;0.85;;;15.00;61.00;;;;;;4993122;28;20098;-49
2021/01/12 00:55:19;;;;;;;2.50;0.80;;;15.00;61.00;;;;;;4993221;28;20101;-50
2021/01/12 00:57:44;;;;;;;2.50;0.90;;;15.00;61.00;;;;;;4993104;28;20508;-51
2021/01/12 01:00:10;;;;;;;2.38;0.63;;;15.00;61.00;;;;;;4993163;28;20026;-49
2021/01/12 01:02:36;;;;;;;2.35;0.80;;;14.90;61.00;;;;;;4992986;28;20027;-50
2021/01/12 01:05:02;;;;;;;2.60;0.88;;;14.90;60.90;;;;;;4992958;28;20147;-50
2021/01/12 01:07:27;;;;;;;2.35;0.60;;;14.90;60.90;;;;;;4993041;28;20076;-49
2021/01/12 01:09:53;;;;;;;1.88;0.73;;;14.90;60.90;;;;;;4992998;28;20469;-48
2021/01/12 01:12:18;;;;;;;1.83;0.70;;;14.90;60.90;;;;;;4992827;28;20432;-50
2021/01/12 01:14:44;;;;;;;2.03;0.93;;;14.90;61.00;;;;;;4975424;28;20555;-52
2021/01/12 01:17:09;;;;;;;1.75;0.70;;;15.00;73.50;;;;;;4992732;28;20041;-49
2021/01/12 01:19:35;;;;;;;2.20;0.70;;;14.90;61.00;;;;;;4993693;28;20030;-51
2021/01/12 01:22:00;;;;;;;2.70;0.70;;;14.90;61.00;;;;;;4992691;28;20065;-49
2021/01/12 01:24:26;;;;;;;3.10;1.00;;;14.90;60.90;;;;;;4992773;28;20026;-51
2021/01/12 01:26:56;;;;;;;1.90;0.70;;;14.90;60.90;;;;;;4992698;28;20026;-50
2021/01/12 01:29:22;;;;;;;2.47;0.88;;;14.80;60.90;;;;;;4992758;28;20046;-51
2021/01/12 01:31:47;;;;;;;2.85;0.77;;;14.80;60.80;;;;;;4992559;28;20469;-49
2021/01/12 01:34:13;;;;;;;1.58;0.60;;;14.80;60.80;;;;;;4992319;28;20037;-50
2021/01/12 01:36:38;;;;;;;2.05;0.70;;;14.80;60.90;;;;;;4992572;28;20038;-49
2021/01/12 01:39:04;;;;;;;1.67;0.50;;;14.80;60.90;;;;;;4992368;28;20027;-49
2021/01/12 01:41:30;;;;;;;2.38;0.95;;;14.80;60.80;;;;;;4992160;28;20113;-49
2021/01/12 01:43:56;;;;;;;1.83;0.77;;;14.80;60.80;;;;;;4995910;28;20110;-50
2021/01/12 01:46:21;;;;;;;2.80;0.65;;;14.80;60.90;;;;;;4996406;28;20022;-50
2021/01/12 01:48:48;;;;;;;1.63;0.60;;;14.70;60.80;;;;;;4996333;28;20022;-49
2021/01/12 01:51:14;;;;;;;2.72;0.93;;;14.80;60.80;;;;;;4996295;28;20477;-51
2021/01/12 01:53:40;;;;;;;3.25;1.00;;;14.80;60.90;;;;;;4996193;28;20515;-50
2021/01/12 01:56:06;;;;;;;2.28;0.65;;;14.80;60.90;;;;;;4996162;28;20034;-50
2021/01/12 01:58:37;;;;;;;4.90;0.95;;;14.70;60.80;;;;;;4996194;28;20564;-54
2021/01/12 02:01:03;;;;;;;1.95;0.93;;;14.70;60.80;;;;;;4996474;28;20026;-49
2021/01/12 02:04:10;;;;;;;2.05;1.13;;;14.70;60.80;;;;;;4996462;28;20181;-50
2021/01/12 02:06:37;;;;;;;3.92;1.00;;;14.70;60.80;;;;;;4996002;28;20354;-49
2021/01/12 02:09:07;;;;;;;1.88;0.70;;;14.60;60.80;;;;;;4996245;28;20019;-49
2021/01/12 02:11:39;;;;;;;2.22;0.60;;;14.60;60.80;;;;;;4996305;28;20019;-50
2021/01/12 02:14:09;;;;;;;3.63;0.90;;;14.70;60.90;;;;;;4996001;28;20034;-50
2021/01/12 02:16:35;;;;;;;2.08;0.98;;;14.70;60.80;;;;;;4978570;28;20089;-50
2021/01/12 02:19:01;;;;;;;2.10;0.70;;;14.70;60.90;;;;;;4995728;28;20022;-50
2021/01/12 02:21:28;;;;;;;2.83;0.85;;;14.70;60.80;;;;;;4996962;28;20078;-51
2021/01/12 02:23:59;;;;;;;1.13;0.63;;;14.70;60.90;;;;;;4995932;28;20026;-49
2021/01/12 02:26:25;;;;;;;2.22;0.70;;;14.70;60.90;;;;;;4995981;28;20056;-50
2021/01/12 02:28:51;;;;;;;2.05;0.90;;;14.60;60.80;;;;;;4995986;28;20033;-49
2021/01/12 02:31:17;;;;;;;1.90;0.77;;;14.70;60.90;;;;;;4995803;28;20026;-49
2021/01/12 02:33:47;;;;;;;1.98;0.68;;;14.60;60.80;;;;;;4995833;28;20041;-49
2021/01/12 02:36:15;;;;;;;1.83;1.00;;;14.70;60.80;;;;;;4995704;28;20038;-50
2021/01/12 02:38:41;;;;;;;3.85;1.00;;;14.60;60.80;;;;;;4995713;28;20034;-48
2021/01/12 02:41:15;;;;;;;1.98;0.60;;;14.60;60.80;;;;;;4995380;28;20023;-49
2021/01/12 02:43:42;;;;;;;3.00;0.60;;;14.60;60.80;;;;;;4995598;28;20033;-49
2021/01/12 02:46:11;;;;;;;2.70;0.85;;;14.60;60.80;;;;;;4995559;28;20085;-49
2021/01/12 02:48:37;;;;;;;2.03;0.80;;;14.60;60.80;;;;;;4995248;28;20476;-49
2021/01/12 02:51:04;;;;;;;3.00;0.70;;;14.60;60.80;;;;;;4995211;28;20088;-50
2021/01/12 02:53:29;;;;;;;3.75;0.93;;;14.60;60.80;;;;;;4994857;28;20026;-50
2021/01/12 02:55:55;;;;;;;1.00;0.57;;;14.60;60.80;;;;;;4994942;28;20112;-50
2021/01/12 02:58:21;;;;;;;3.28;0.98;;;14.50;60.80;;;;;;4995345;28;20023;-49
2021/01/12 03:00:46;;;;;;;3.20;0.80;;;14.60;60.80;;;;;;4995317;28;20085;-49
2021/01/12 03:03:12;;;;;;;2.78;0.65;;;14.60;60.80;;;;;;4995316;28;20465;-50
2021/01/12 03:05:37;;;;;;;2.92;1.00;;;14.50;60.80;;;;;;4995210;28;20034;-52
2021/01/12 03:08:03;;;;;;;1.48;0.70;;;14.50;60.80;;;;;;4995242;28;20022;-49
2021/01/12 03:10:29;;;;;;;2.83;0.75;;;14.50;60.80;;;;;;4977845;28;20106;-48
2021/01/12 03:12:54;;;;;;;3.88;0.85;;;14.50;60.70;;;;;;4995027;28;20420;-49
2021/01/12 03:15:20;;;;;;;2.25;0.73;;;14.50;60.80;;;;;;4994730;28;20037;-51
2021/01/12 03:17:45;;;;;;;1.35;0.70;;;14.60;60.90;;;;;;4994885;28;20022;-48
2021/01/12 03:20:12;;;;;;;1.83;0.90;;;14.50;60.80;;;;;;4978013;28;20663;-50
2021/01/12 03:22:41;;;;;;;1.58;0.70;;;14.50;60.80;;;;;;4994734;28;20026;-50
2021/01/12 03:25:07;;;;;;;2.10;0.70;;;14.50;60.80;;;;;;4994887;28;20476;-49
2021/01/12 03:27:33;;;;;;;2.88;0.70;;;14.50;60.80;;;;;;4994877;28;20034;-49
2021/01/12 03:29:58;;;;;;;2.60;0.75;;;14.50;60.80;;;;;;4994542;28;20019;-49
2021/01/12 03:32:24;;;;;;;3.97;0.93;;;14.50;60.80;;;;;;4994599;28;20069;-49
2021/01/12 03:34:49;;;;;;;1.02;0.68;;;14.50;60.80;;;;;;4994707;28;20034;-49
2021/01/12 03:37:15;;;;;;;1.75;0.68;;;14.50;60.80;;;;;;4994791;28;20069;-49
2021/01/12 03:39:40;;;;;;;1.90;0.98;;;14.60;60.90;;;;;;4994276;28;20026;-49
2021/01/12 03:42:06;;;;;;;1.83;0.70;;;14.50;60.80;;;;;;4994632;28;20019;-49
2021/01/12 03:44:31;;;;;;;3.85;1.08;;;14.50;60.80;;;;;;4994306;28;20032;-49
2021/01/12 03:46:57;;;;;;;1.67;0.50;;;14.50;60.80;;;;;;4994287;28;20029;-50
2021/01/12 03:49:23;;;;;;;1.15;0.57;;;14.50;60.80;;;;;;4994191;28;20026;-51
2021/01/12 03:51:49;;;;;;;2.20;0.55;;;14.50;60.90;;;;;;4994148;28;20080;-51
2021/01/12 03:54:15;;;;;;;1.42;0.82;;;14.50;60.90;;;;;;4994269;28;20110;-49
2021/01/12 03:56:40;;;;;;;2.45;0.75;;;14.40;60.80;;;;;;4994065;28;20113;-49
2021/01/12 03:59:06;;;;;;;2.65;0.80;;;14.50;60.80;;;;;;4994165;28;20102;-48
2021/01/12 04:01:31;;;;;;;1.90;0.85;;;14.40;60.80;;;;;;4994254;28;20034;-49
2021/01/12 04:03:57;;;;;;;3.58;0.68;;;14.50;60.80;;;;;;4993912;28;20030;-49
2021/01/12 04:06:23;;;;;;;1.73;0.75;;;14.40;60.80;;;;;;4976321;28;20054;-50
2021/01/12 04:08:48;;;;;;;2.33;0.90;;;14.30;60.70;;;;;;4994132;28;20025;-49
2021/01/12 04:11:18;;;;;;;2.05;0.80;;;14.40;60.80;;;;;;4993986;28;20484;-49
2021/01/12 04:13:43;;;;;;;3.22;0.73;;;14.40;60.80;;;;;;4994035;28;20022;-49
2021/01/12 04:16:09;;;;;;;1.50;0.70;;;14.40;60.80;;;;;;4993893;28;20547;-49
2021/01/12 04:18:35;;;;;;;1.63;0.63;;;14.40;60.80;;;;;;4993474;28;20041;-49
2021/01/12 04:21:01;;;;;;;2.80;0.80;;;14.40;60.90;;;;;;4994417;28;20070;-48
2021/01/12 04:23:27;;;;;;;1.58;0.60;;;14.40;60.80;;;;;;4993775;28;20377;-49
2021/01/12 04:25:53;;;;;;;3.08;0.85;;;14.40;60.80;;;;;;4993795;28;20019;-49
2021/01/12 04:28:18;;;;;;;2.55;0.68;;;14.30;60.70;;;;;;4993462;28;20488;-49
2021/01/12 04:30:44;;;;;;;3.22;0.77;;;14.40;60.80;;;;;;4993677;28;20022;-49
2021/01/12 04:33:10;;;;;;;3.45;0.50;;;14.40;60.90;;;;;;4993713;28;20030;-50
2021/01/12 04:35:35;;;;;;;3.10;0.70;;;14.30;60.80;;;;;;4993506;28;20072;-49
2021/01/12 04:38:02;;;;;;;2.70;0.80;;;14.30;60.80;;;;;;4993391;28;20022;-49
2021/01/12 04:40:28;;;;;;;4.10;0.70;;;14.30;60.80;;;;;;4993447;28;20025;-48
2021/01/12 04:43:00;;;;;;;2.25;0.70;;;14.30;60.80;;;;;;4993256;28;20034;-50
2021/01/12 04:45:27;;;;;;;3.60;0.90;;;14.40;60.90;;;;;;4993286;28;20045;-50
2021/01/12 04:47:53;;;;;;;2.72;0.80;;;14.30;60.80;;;;;;4993132;28;20030;-49
2021/01/12 04:50:18;;;;;;;2.88;0.63;;;14.30;60.80;;;;;;4993435;28;20026;-49
2021/01/12 04:52:46;;;;;;;1.77;0.60;;;14.30;60.90;;;;;;4993331;28;20022;-48
2021/01/12 04:55:13;;;;;;;2.33;1.10;;;14.30;60.90;;;;;;4992937;28;20473;-49
2021/01/12 04:57:39;;;;;;;2.80;0.50;;;14.30;61.00;;;;;;4993291;28;20073;-49
2021/01/12 05:00:12;;;;;;;4.47;1.00;;;14.30;61.00;;;;;;4993290;28;20432;-50
2021/01/12 05:02:39;;;;;;;2.10;0.80;;;14.30;61.00;;;;;;4993279;28;20253;-49
2021/01/12 05:05:06;;;;;;;3.70;0.88;;;14.30;61.00;;;;;;4992991;28;20029;-48
2021/01/12 05:07:32;;;;;;;1.83;0.80;;;14.30;61.00;;;;;;4992895;28;20030;-50
2021/01/12 05:09:57;;;;;;;2.05;0.80;;;14.30;61.00;;;;;;4992798;28;20423;-48
2021/01/12 05:12:27;;;;;;;2.10;1.08;;;14.30;61.00;;;;;;4993192;28;20022;-49
2021/01/12 05:14:55;;;;;;;4.20;1.08;;;14.30;61.00;;;;;;4992777;28;20030;-50
2021/01/12 05:17:22;;;;;;;2.35;0.77;;;14.30;61.00;;;;;;4992325;28;20428;-50
2021/01/12 05:19:54;;;;;;;1.05;0.40;;;14.20;61.00;;;;;;4992856;28;20026;-50
2021/01/12 05:22:28;;;;;;;2.08;0.85;;;14.20;61.00;;;;;;4992771;28;20043;-48
2021/01/12 05:25:19;;;;;;;2.55;0.60;;;14.20;61.00;;;;;;4992845;28;20035;-48
2021/01/12 05:27:40;;;;;;;2.10;0.80;;;14.20;61.00;;;;;;4992500;28;20072;-51
2021/01/12 05:30:06;;;;;;;3.17;0.55;;;14.20;61.00;;;;;;4992874;28;20046;-49
2021/01/12 05:32:36;;;;;;;1.85;0.80;;;14.20;61.10;;;;;;4992696;28;20030;-49
2021/01/12 05:35:04;;;;;;;2.97;1.03;;;14.20;61.10;;;;;;4992471;28;20042;-52
2021/01/12 05:37:31;;;;;;;2.65;0.90;;;14.30;61.10;;;;;;4992491;28;20452;-49
2021/01/12 05:39:57;;;;;;;3.95;0.93;;;14.20;61.10;;;;;;4992824;28;20033;-49
2021/01/12 05:42:23;;;;;;;1.58;0.60;;;14.20;61.20;;;;;;4992532;28;20018;-49
2021/01/12 05:44:49;;;;;;;1.63;0.60;;;14.20;61.20;;;;;;4992824;28;20029;-50
2021/01/12 05:47:15;;;;;;;4.10;1.17;;;14.20;61.20;;;;;;4992548;28;20022;-48
2021/01/12 05:49:44;;;;;;;1.45;0.68;;;14.20;61.30;;;;;;4992430;28;20050;-48
2021/01/12 05:52:11;;;;;;;1.50;0.55;;;14.20;61.40;;;;;;4992334;28;20035;-50
2021/01/12 05:54:36;;;;;;;4.05;0.90;;;14.20;61.40;;;;;;4992343;28;20066;-50
2021/01/12 05:57:07;;;;;;;1.90;0.80;;;14.20;61.40;;;;;;4992317;28;20112;-49
2021/01/12 05:59:34;;;;;;;;;;;14.20;61.50;;;;;;4993080;28;20065;-51
2021/01/12 06:02:03;;;;;;;2.33;0.65;;;14.20;61.70;;;;;;4992548;28;19988;-50
2021/01/12 06:04:29;;;;;;;1.95;0.70;;;14.20;61.60;;;;;;4992450;28;20026;-50
2021/01/12 06:06:56;;;;;;;1.55;0.90;;;14.20;61.80;;;;;;4992374;28;20038;-49
2021/01/12 06:09:23;;;;;;;2.10;0.73;;;14.20;62.00;;;;;;4992197;28;20113;-49
2021/01/12 06:11:53;;;;;;;2.83;0.90;;;14.30;61.90;;;;;;4974575;28;20069;-50
2021/01/12 06:14:27;;;;;;;1.98;0.80;;;14.30;62.50;;;;;;4992483;28;20026;-49
2021/01/12 06:16:53;;;;;;;0.70;0.40;;;14.40;74.00;;;;;;4992358;28;20449;-49
2021/01/12 06:19:21;;;;;;;2.35;0.93;;;14.50;62.50;;;;;;4992409;28;20018;-48
2021/01/12 06:21:55;;;;;;;1.52;0.60;;;14.50;62.30;;;;;;4993188;28;20054;-49
2021/01/12 06:24:37;;;;;;;2.83;0.88;;;14.60;62.30;;;;;;4992478;28;20110;-48
2021/01/12 06:27:13;;;;;;;2.30;0.50;;;14.70;62.40;;;;;;4974549;28;20485;-48
2021/01/12 06:29:40;;;;;;;1.23;0.47;;;14.80;62.40;;;;;;4977408;28;20384;-48
2021/01/12 06:32:06;;;;;;;2.03;0.60;;;14.80;62.30;;;;;;4995567;28;20026;-49
2021/01/12 06:34:32;;;;;;;1.33;0.52;;;14.90;62.20;;;;;;4995727;28;20041;-48
2021/01/12 06:36:59;;;;;;;2.00;0.47;;;14.90;62.10;;;;;;4995832;28;20031;-49
2021/01/12 06:39:54;;;;;;;1.75;0.60;;;15.00;62.20;;;;;;4995728;28;20058;-49
2021/01/12 06:42:23;;;;;;;1.83;1.08;;;15.00;62.10;;;;;;4990494;28;20046;-49
2021/01/12 06:44:50;;;;;;;2.65;0.63;;;15.20;62.10;;;;;;4995405;28;20026;-50
2021/01/12 06:47:19;;;;;;;1.90;0.77;;;15.00;61.90;;;;;;4995503;28;20029;-49
2021/01/12 06:49:45;;;;;;;1.98;0.73;;;15.10;62.00;;;;;;4993906;28;20030;-48
2021/01/12 06:52:13;;;;;;;3.47;0.68;;;15.10;61.90;;;;;;4993760;28;20015;-49
2021/01/12 06:54:43;;;;;;;0.95;0.40;;;15.10;61.90;;;;;;4994822;28;20026;-51
2021/01/12 06:57:11;;;;;;;2.13;0.55;;;15.10;62.00;;;;;;4994530;28;20040;-50
2021/01/12 06:59:44;;;;;;;3.40;1.00;;;15.10;62.10;;;;;;4995087;28;20029;-48
2021/01/12 07:02:20;;;;;;;2.60;0.63;;;15.20;62.10;;;;;;4995429;28;20041;-49
2021/01/12 07:05:16;;;;;;;2.75;0.75;;;15.20;62.10;;;;;;4995370;28;20041;-49
2021/01/12 07:07:49;;;;;;;1.17;0.50;;;15.10;62.00;;;;;;4994181;28;20115;-49
2021/01/12 07:10:17;;;;;;;1.85;0.63;;;15.10;62.00;;;;;;4994928;28;20527;-52
2021/01/12 07:12:44;;;;;;;1.88;0.70;;;15.10;62.00;;;;;;4995159;28;20081;-49
2021/01/12 07:15:17;;;;;;;2.70;0.75;;;15.10;61.90;;;;;;4977354;28;20496;-49
2021/01/12 07:17:46;;;;;;;2.20;0.93;;;15.10;61.90;;;;;;4977266;28;20489;-48
2021/01/12 07:20:20;;;;;;;2.50;0.63;;;15.10;61.90;;;;;;4995977;28;20444;-47
2021/01/12 07:22:54;;;;;;;2.72;0.75;;;15.10;61.90;;;;;;4995038;28;20034;-49
2021/01/12 07:25:25;;;;;;;1.67;0.70;;;15.10;61.80;;;;;;4994909;28;20026;-48
2021/01/12 07:28:13;;;;;;;3.22;0.70;;;15.10;61.80;;;;;;4977046;28;20121;-51
2021/01/12 07:30:40;;;;;;;1.85;0.70;;;15.00;62.20;;;;;;4994665;28;20113;-48
2021/01/12 07:33:07;;;;;;;4.88;0.68;;;15.00;62.30;;;;;;4993660;28;20102;-48
2021/01/12 07:35:35;;;;;;;2.75;0.73;;;15.00;62.20;;;;;;4994392;28;20121;-48
2021/01/12 07:38:01;;;;;;;5.10;0.90;;;15.00;62.30;;;;;;4994722;28;20383;-48
2021/01/12 07:40:29;;;;;;;3.22;1.05;;;14.90;62.20;;;;;;4994238;28;20030;-48
2021/01/12 07:43:00;;;;;;;2.38;0.77;;;14.90;62.20;;;;;;4994562;28;20072;-48
2021/01/12 07:45:31;;;;;;;1.90;0.80;;;14.90;62.10;;;;;;4994270;28;20484;-50
2021/01/12 07:47:57;;;;;;;;;;;14.90;62.10;;;;;;4995040;28;20029;-49
2021/01/12 07:50:25;;;;;;;2.63;0.57;;;14.90;62.10;;;;;;4994530;28;19906;-49
2021/01/12 07:52:52;;;;;;;2.85;1.00;;;14.80;62.30;;;;;;4994436;28;20027;-49
2021/01/12 07:55:17;;;;;;;1.90;0.73;;;14.90;63.20;;;;;;4993987;28;20121;-48
2021/01/12 07:57:46;;;;;;;4.97;0.60;;;14.80;62.40;;;;;;4993855;28;20109;-50
2021/01/12 08:00:14;;;;;;;5.97;0.93;;;14.80;62.60;;;;;;4993803;28;20110;-48
2021/01/12 08:02:44;;;;;;;4.45;0.93;;;14.80;62.70;;;;;;4994071;28;20014;-50
2021/01/12 08:05:12;;;;;;;2.45;0.50;;;14.80;62.70;;;;;;4976435;28;20038;-52
2021/01/12 08:07:38;;;;;;;4.72;1.02;;;14.80;62.70;;;;;;5000328;28;20029;-49
2021/01/12 08:10:06;;;;;;;2.25;0.60;;;14.80;62.70;;;;;;5013524;28;20057;-50
2021/01/12 08:12:32;;;;;;;4.97;1.00;;;14.80;62.80;;;;;;5013202;28;20025;-49
2021/01/12 08:15:11;;;;;;;2.58;0.77;;;14.80;62.80;;;;;;5013364;28;20040;-48
2021/01/12 08:17:44;;;;;;;1.60;0.55;;;14.80;62.80;;;;;;5013057;28;20029;-49
2021/01/12 08:20:11;;;;;;;1.30;0.52;;;14.80;62.80;;;;;;5013419;28;20113;-50
2021/01/12 08:22:37;;;;;;;5.65;0.80;;;14.80;62.80;;;;;;4995447;28;20054;-48
2021/01/12 08:25:05;;;;;;;3.03;0.70;;;14.80;62.70;;;;;;5013156;28;20022;-48
2021/01/12 08:27:31;;;;;;;3.15;0.70;;;14.70;62.60;;;;;;5013168;28;20032;-48
2021/01/12 08:30:06;;;;;;;1.38;0.50;;;14.70;62.60;;;;;;5013168;28;20026;-48
2021/01/12 08:32:35;;;;;;;2.38;0.40;;;14.70;62.50;;;;;;5013303;28;20101;-47
2021/01/12 08:35:07;;;;;;;3.15;0.63;;;14.70;62.50;;;;;;5013011;28;20033;-48
2021/01/12 08:37:53;;;;;;;0.82;0.45;;;14.70;62.60;;;;;;5013188;28;20048;-49
2021/01/12 08:40:19;;;;;;;2.20;0.70;;;14.70;62.50;;;;;;5013378;28;20022;-51
2021/01/12 08:42:47;;;;;;;1.20;0.50;;;14.60;62.50;;;;;;5013051;28;20381;-48
2021/01/12 08:45:17;;;;;;;2.25;0.50;;;14.70;62.60;;;;;;5013032;28;20025;-49
2021/01/12 08:47:47;;;;;;;3.22;0.80;;;14.70;62.40;;;;;;5012934;28;20380;-49
2021/01/12 08:50:13;;;;;;;1.02;0.40;;;14.70;62.40;;;;;;5012591;28;20018;-49
2021/01/12 08:52:44;;;;;;;1.48;0.50;;;14.70;62.20;;;;;;5011786;28;20029;-49
2021/01/12 08:55:20;;;;;;;2.20;0.65;;;14.70;62.30;;;;;;5012549;28;20030;-49
2021/01/12 08:58:03;;;;;;;5.90;0.50;;;14.70;62.20;;;;;;5012707;28;20037;-48
2021/01/12 09:00:35;;;;;;;8.00;0.73;;;14.60;62.10;;;;;;5012898;28;20490;-48
2021/01/12 09:03:01;;;;;;;2.03;0.60;;;14.80;62.10;;;;;;5012778;28;20017;-47
2021/01/12 09:05:31;;;;;;;1.80;0.40;;;14.80;62.10;;;;;;5012354;28;20532;-48
2021/01/12 09:08:15;;;;;;;0.90;0.47;;;14.80;62.10;;;;;;5012446;28;20025;-49
2021/01/12 09:10:41;;;;;;;2.08;0.47;;;14.80;61.90;;;;;;5012417;28;20030;-49
2021/01/12 09:13:08;;;;;;;1.30;0.43;;;14.80;61.80;;;;;;5012584;28;20054;-49
2021/01/12 09:15:38;;;;;;;2.35;0.50;;;14.80;61.80;;;;;;5012322;28;20519;-49
2021/01/12 09:18:07;;;;;;;1.98;0.50;;;14.90;61.80;;;;;;4995353;28;20431;-49
2021/01/12 09:20:34;;;;;;;1.95;0.40;;;14.90;61.70;;;;;;5013499;28;20053;-48
2021/01/12 09:23:08;;;;;;;2.55;0.77;;;14.90;61.60;;;;;;5013275;28;20053;-48
2021/01/12 09:25:34;;;;;;;0.55;0.30;;;14.90;61.60;;;;;;5012368;28;20014;-48
2021/01/12 09:28:10;;;;;;;2.60;0.82;;;15.00;61.50;;;;;;5012367;28;20022;-48
2021/01/12 09:30:36;;;;;;;1.13;0.60;;;15.00;61.40;;;;;;5012432;28;20082;-48
2021/01/12 09:33:02;;;;;;;2.33;0.30;;;15.00;61.30;;;;;;5011975;28;20030;-48
2021/01/12 09:35:27;;;;;;;3.22;0.52;;;15.00;61.20;;;;;;5012037;28;20144;-48
2021/01/12 09:37:57;;;;;;;1.52;0.50;;;15.10;61.20;;;;;;5012058;28;20101;-48
2021/01/12 09:40:23;;;;;;;1.45;0.57;;;15.10;61.20;;;;;;5012193;28;20099;-50
2021/01/12 09:42:48;;;;;;;0.88;0.60;;;15.00;61.10;;;;;;5012008;28;20070;-51
2021/01/12 09:45:14;;;;;;;1.50;0.38;;;15.00;61.20;;;;;;5011871;28;20034;-49
2021/01/12 09:47:40;;;;;;;1.33;0.35;;;15.00;61.20;;;;;;5011697;28;20018;-49
2021/01/12 09:50:06;;;;;;;1.52;0.50;;;15.00;61.20;;;;;;5012165;28;20088;-50
2021/01/12 09:52:32;;;;;;;1.08;0.43;;;15.00;61.20;;;;;;5011717;28;20057;-50
2021/01/12 09:54:57;;;;;;;2.00;0.50;;;15.00;61.20;;;;;;5012062;28;20425;-49
2021/01/12 09:57:23;;;;;;;1.80;0.52;;;15.00;61.20;;;;;;5011976;28;20022;-46
2021/01/12 09:59:48;;;;;;;2.05;0.28;;;15.00;61.20;;;;;;5012048;28;20026;-48
2021/01/12 10:02:14;;;;;;;1.08;0.30;;;15.00;61.10;;;;;;5012042;28;20057;-49
2021/01/12 10:04:40;;;;;;;1.08;0.60;;;15.00;61.00;;;;;;5015053;28;20041;-52
2021/01/12 10:07:05;;;;;;;1.80;0.50;;;14.90;61.00;;;;;;4981661;28;20022;-49
2021/01/12 10:09:31;;;;;;;2.08;0.50;;;15.00;61.10;;;;;;5016079;28;20038;-49
2021/01/12 10:11:56;;;;;;;1.45;0.57;;;14.90;61.00;;;;;;5015811;28;20092;-49
2021/01/12 10:14:24;;;;;;;1.77;0.30;;;14.90;61.00;;;;;;4997791;28;20531;-48
2021/01/12 10:16:50;;;;;;;2.60;0.47;;;14.90;61.10;;;;;;5015472;28;20029;-50
2021/01/12 10:19:16;;;;;;;2.28;0.70;;;14.90;61.10;;;;;;5015366;28;20018;-52
2021/01/12 10:21:42;;;;;;;1.33;0.40;;;14.80;61.10;;;;;;5016453;28;20057;-51
2021/01/12 10:24:07;;;;;;;2.70;0.57;;;14.90;61.20;;;;;;5015558;28;20435;-48
2021/01/12 10:26:33;;;;;;;4.40;0.75;;;14.90;61.20;;;;;;5015629;28;20022;-51
2021/01/12 10:29:00;;;;;;;1.75;0.38;;;14.90;61.50;;;;;;5015273;28;20021;-49
2021/01/12 10:31:26;;;;;;;1.33;0.50;;;14.90;61.20;;;;;;4997469;28;20037;-50
2021/01/12 10:33:52;;;;;;;2.08;0.70;;;14.90;61.30;;;;;;5015175;28;20205;-53
2021/01/12 10:36:20;;;;;;;2.05;0.55;;;15.00;61.40;;;;;;5015270;28;20108;-49
2021/01/12 10:38:46;;;;;;;1.80;0.40;;;15.00;61.20;;;;;;5015026;28;20388;-49
2021/01/12 10:41:13;;;;;;;0.68;0.32;;;15.10;61.30;;;;;;5013856;28;20512;-49
2021/01/12 10:43:39;;;;;;;0.95;0.50;;;15.10;61.00;;;;;;5015257;28;20026;-48
2021/01/12 10:46:05;;;;;;;2.38;0.32;;;15.20;61.00;;;;;;5014910;28;20469;-49
2021/01/12 10:48:31;;;;;;;1.23;0.50;;;15.20;60.70;;;;;;5014718;28;20029;-52
2021/01/12 10:50:56;;;;;;;1.33;0.40;;;15.30;60.90;;;;;;5015045;28;20073;-52
2021/01/12 10:53:22;;;;;;;1.25;0.40;;;15.30;60.90;;;;;;5015153;28;20027;-49
2021/01/12 10:55:49;;;;;;;1.17;0.32;;;15.30;60.70;;;;;;5014910;28;20041;-50
2021/01/12 10:58:15;;;;;;;2.47;0.40;;;15.30;60.50;;;;;;5014940;28;20021;-48
2021/01/12 11:00:41;;;;;;;0.90;0.40;;;15.40;60.50;;;;;;5014765;28;20060;-49
2021/01/12 11:03:07;;;;;;;1.38;0.40;;;15.40;60.40;;;;;;5014657;28;20045;-48
2021/01/12 11:05:34;;;;;;;2.97;0.40;;;15.40;60.10;;;;;;5014597;28;20057;-49
2021/01/12 11:08:00;;;;;;;1.17;0.30;;;15.50;60.10;;;;;;5014757;28;20045;-50
2021/01/12 11:10:26;;;;;;;1.60;0.50;;;15.50;59.90;;;;;;5014484;28;20018;-49
2021/01/12 11:12:52;;;;;;;1.50;0.45;;;15.50;59.80;;;;;;5014419;28;20126;-48
2021/01/12 11:15:18;;;;;;;1.35;0.50;;;15.50;60.00;;;;;;4996087;28;20044;-50
2021/01/12 11:17:47;;;;;;;2.58;0.70;;;15.60;60.00;;;;;;5013084;28;20106;-50
2021/01/12 11:20:13;;;;;;;1.33;0.40;;;15.60;59.70;;;;;;5014440;28;20392;-48
2021/01/12 11:22:40;;;;;;;0.63;0.40;;;15.60;59.70;;;;;;5015087;28;20057;-49
2021/01/12 11:25:06;;;;;;;2.60;0.52;;;15.60;59.50;;;;;;5014368;28;20033;-48
2021/01/12 11:27:34;;;;;;;2.42;0.43;;;15.60;59.30;;;;;;5014022;28;20052;-52
2021/01/12 11:30:00;;;;;;;1.67;0.30;;;15.60;59.40;;;;;;5014078;28;20022;-48
2021/01/12 11:32:25;;;;;;;1.83;0.35;;;15.60;59.40;;;;;;5013988;28;20195;-49
2021/01/12 11:34:51;;;;;;;4.00;0.85;;;15.60;59.50;;;;;;5014179;28;20029;-50
2021/01/12 11:37:17;;;;;;;2.03;0.60;;;15.70;59.60;;;;;;5014025;28;20447;-49
2021/01/12 11:39:43;;;;;;;1.92;0.70;;;15.60;59.20;;;;;;5013822;28;20010;-48
2021/01/12 11:42:13;;;;;;;2.15;0.43;;;15.60;59.30;;;;;;5013800;28;20030;-49
2021/01/12 11:44:40;;;;;;;5.38;0.57;;;15.50;59.20;;;;;;5014115;28;20053;-50
2021/01/12 11:47:06;;;;;;;3.08;0.68;;;15.50;58.90;;;;;;5013665;28;20492;-49
2021/01/12 11:49:33;;;;;;;1.10;0.60;;;15.50;58.50;;;;;;5013563;28;20057;-50
2021/01/12 11:51:58;;;;;;;3.63;0.50;;;15.50;58.60;;;;;;5013668;28;20022;-50
2021/01/12 11:54:24;;;;;;;2.05;0.55;;;15.50;59.30;;;;;;5013538;28;20040;-50
2021/01/12 11:56:56;;;;;;;0.88;0.45;;;15.50;58.90;;;;;;5013786;28;20026;-51
2021/01/12 11:59:30;;;;;;;4.00;0.75;;;15.50;58.50;;;;;;5013605;28;20084;-52
2021/01/12 12:01:57;;;;;;;1.13;0.40;;;15.70;58.50;;;;;;5013309;28;20041;-49
2021/01/12 12:04:24;;;;;;;2.92;0.60;;;15.60;58.20;;;;;;5013737;28;20036;-50
2021/01/12 12:06:54;;;;;;;1.67;0.68;;;15.60;58.40;;;;;;5013452;28;20022;-50
2021/01/12 12:09:20;;;;;;;;;;;15.60;58.40;;;;;;5013770;28;20052;-50
2021/01/12 12:11:47;;;;;;;3.30;0.82;;;15.60;58.40;;;;;;4995769;28;20351;-52
2021/01/12 12:14:14;;;;;;;1.85;0.50;;;15.60;58.30;;;;;;4995431;28;20029;-48
2021/01/12 12:16:43;;;;;;;1.85;0.50;;;15.60;58.50;;;;;;5013145;28;20036;-50
2021/01/12 12:19:09;;;;;;;2.03;0.77;;;15.60;58.50;;;;;;5013374;28;20106;-50
2021/01/12 12:21:47;;;;;;;2.15;0.65;;;15.60;58.40;;;;;;5014209;28;20076;-49
2021/01/12 12:24:14;;;;;;;2.83;0.82;;;15.60;58.40;;;;;;5013027;28;20481;-53
2021/01/12 12:26:40;;;;;;;2.50;0.43;;;15.60;58.50;;;;;;5013097;28;20022;-51
2021/01/12 12:29:05;;;;;;;2.80;0.35;;;15.60;58.50;;;;;;5013251;28;20032;-50
2021/01/12 12:31:31;;;;;;;0.80;0.40;;;15.60;58.50;;;;;;5012804;28;20535;-49
2021/01/12 12:33:56;;;;;;;3.75;0.57;;;15.60;58.50;;;;;;5013173;28;20029;-50
2021/01/12 12:36:22;;;;;;;1.08;0.30;;;15.60;58.60;;;;;;5012833;28;20040;-51
2021/01/12 12:38:48;;;;;;;2.35;0.50;;;15.60;58.40;;;;;;4995024;28;20088;-49
2021/01/12 12:41:15;;;;;;;1.65;0.50;;;15.60;58.30;;;;;;5012625;28;20026;-49
2021/01/12 12:43:42;;;;;;;2.05;0.55;;;15.60;58.30;;;;;;5013050;28;20025;-51
2021/01/12 12:46:09;;;;;;;2.35;0.60;;;15.60;58.00;;;;;;5012777;28;20038;-50
2021/01/12 12:48:35;;;;;;;3.58;0.73;;;15.70;57.90;;;;;;5012698;28;20025;-51
2021/01/12 12:51:01;;;;;;;2.38;0.57;;;15.70;57.90;;;;;;5012962;28;20110;-52